Time;durP1;ratioP1;P1;durP2;ratioP2;P2;SDS_P1;SDS_P2;PMS_P1;PMS_P2;Temp;Humidity;BMP_temperature;BMP_pressure;BME280_temperature;BME280_humidity;BME280_pressure;Samples;Min_cycle;Max_cycle;Signal;HPM_P1;HPM_P2
2023/08/07 00:00:25;;;;;;;3.60;1.20;;;;;;;12.46;100.00;101279.09;5032263;28;20091;-88
2023/08/07 00:02:50;;;;;;;5.30;1.50;;;;;;;12.44;100.00;101281.75;5032538;28;20060;-87
2023/08/07 00:05:18;;;;;;;3.20;1.50;;;;;;;12.41;100.00;101278.34;5032437;28;20022;-86
2023/08/07 00:07:44;;;;;;;4.30;1.80;;;;;;;12.39;100.00;101280.94;5033273;28;20469;-86
2023/08/07 00:10:10;;;;;;;4.07;1.63;;;;;;;12.39;100.00;101282.69;5032356;28;20172;-86
2023/08/07 00:12:36;;;;;;;2.38;1.38;;;;;;;12.35;100.00;101268.88;5024778;28;20181;-87
2023/08/07 00:15:02;;;;;;;2.33;1.37;;;;;;;12.35;100.00;101279.28;5033171;28;20110;-86
2023/08/07 00:17:28;;;;;;;4.55;2.00;;;;;;;12.26;100.00;101272.47;5032639;28;20025;-87
2023/08/07 00:19:54;;;;;;;6.30;1.70;;;;;;;12.23;100.00;101276.88;5033549;28;20037;-87
2023/08/07 00:22:20;;;;;;;4.33;2.03;;;;;;;12.16;100.00;101268.31;5033053;28;20380;-87
2023/08/07 00:24:45;;;;;;;4.17;1.80;;;;;;;12.17;100.00;101277.84;5032259;28;20029;-87
2023/08/07 00:27:11;;;;;;;3.07;1.60;;;;;;;12.14;100.00;101273.53;5032758;28;20481;-87
2023/08/07 00:29:36;;;;;;;3.05;1.50;;;;;;;12.14;100.00;101283.94;5033116;28;20034;-87
2023/08/07 00:32:03;;;;;;;3.53;1.60;;;;;;;12.11;100.00;101273.56;5032467;28;20377;-87
2023/08/07 00:34:28;;;;;;;3.85;1.70;;;;;;;12.13;100.00;101279.63;5033328;28;20034;-87
2023/08/07 00:36:53;;;;;;;3.43;1.70;;;;;;;12.08;100.00;101275.38;5032726;28;20033;-86
2023/08/07 00:39:19;;;;;;;3.33;1.53;;;;;;;12.08;100.00;101273.63;5033019;28;20397;-87
2023/08/07 00:41:44;;;;;;;2.17;1.33;;;;;;;12.12;100.00;101285.72;5033241;28;20102;-87
2023/08/07 00:44:09;;;;;;;2.50;1.23;;;;;;;12.07;100.00;101274.50;5031129;28;20441;-87
2023/08/07 00:46:35;;;;;;;2.83;1.30;;;;;;;12.13;100.00;101282.22;5032966;28;20470;-87
2023/08/07 00:49:01;;;;;;;6.03;1.73;;;;;;;12.14;100.00;101291.75;5033135;28;20065;-87
2023/08/07 00:51:26;;;;;;;3.42;1.67;;;;;;;12.13;100.00;101290.03;5031662;28;20428;-87
2023/08/07 00:53:52;;;;;;;3.07;1.50;;;;;;;12.14;100.00;101289.16;5033064;28;20025;-87
2023/08/07 00:56:17;;;;;;;4.50;1.77;;;;;;;12.11;100.00;101293.50;5037468;28;20064;-88
2023/08/07 00:58:43;;;;;;;3.83;2.07;;;;;;;12.14;100.00;101301.28;5052039;28;20100;-87
2023/08/07 01:01:09;;;;;;;4.47;1.70;;;;;;;12.16;100.00;101292.56;5052139;28;20021;-87
2023/08/07 01:03:34;;;;;;;3.87;1.73;;;;;;;12.15;100.00;101282.19;5052877;28;20032;-87
2023/08/07 01:05:59;;;;;;;2.23;1.43;;;;;;;12.14;100.00;101278.75;5054964;28;20074;-87
2023/08/07 01:08:26;;;;;;;1.87;1.33;;;;;;;12.15;100.00;101287.41;5056410;28;20028;-86
2023/08/07 01:11:29;;;;;;;4.00;1.77;;;;;;;12.13;100.00;101279.63;5056384;28;20025;-87
2023/08/07 01:13:58;;;;;;;3.38;1.50;;;;;;;12.14;100.00;101283.94;5056588;28;20033;-87
2023/08/07 01:17:07;;;;;;;4.43;1.73;;;;;;;12.14;100.00;101288.28;5056519;28;20397;-87
2023/08/07 01:19:34;;;;;;;2.25;1.55;;;;;;;12.14;100.00;101288.28;5056201;28;20041;-87
2023/08/07 01:22:12;;;;;;;3.67;1.73;;;;;;;12.17;100.00;101293.44;5056591;28;20500;-87
2023/08/07 01:24:43;;;;;;;4.78;1.90;;;;;;;12.17;100.00;101294.28;5054578;28;20037;-87
2023/08/07 01:27:18;;;;;;;2.78;1.30;;;;;;;12.20;100.00;101298.63;5055239;28;20025;-87
2023/08/07 01:30:08;;;;;;;1.30;1.20;;;;;;;12.22;100.00;101303.78;5055184;28;20059;-87
2023/08/07 01:32:49;;;;;;;1.88;1.17;;;;;;;12.23;100.00;101301.16;5046840;28;20084;-88
2023/08/07 01:35:16;;;;;;;3.13;1.80;;;;;;;12.21;100.00;101308.13;5055708;28;20028;-87
2023/08/07 01:37:45;;;;;;;6.72;1.92;;;;;;;12.20;100.00;101302.06;5056195;28;20035;-88
2023/08/07 01:40:12;;;;;;;4.22;1.50;;;;;;;12.18;100.00;101300.38;5055345;28;20389;-87
2023/08/07 01:42:38;;;;;;;5.03;1.90;;;;;;;12.17;100.00;101299.50;5056237;28;20171;-88
2023/08/07 01:45:05;;;;;;;6.03;2.20;;;;;;;12.20;100.00;101303.81;5054684;28;20497;-87
2023/08/07 01:47:30;;;;;;;1.67;1.27;;;;;;;12.19;100.00;101296.88;5056370;28;20335;-87
2023/08/07 01:49:59;;;;;;;3.87;1.60;;;;;;;12.18;100.00;101295.16;5056131;28;20040;-88
2023/08/07 01:52:25;;;;;;;3.70;1.63;;;;;;;12.18;100.00;101292.56;5055867;28;20028;-87
2023/08/07 01:54:50;;;;;;;5.43;2.20;;;;;;;12.16;100.00;101297.78;5054703;28;20025;-87
2023/08/07 01:57:16;;;;;;;2.63;1.90;;;;;;;12.15;100.00;101308.22;5055607;28;20099;-88
2023/08/07 01:59:42;;;;;;;3.70;1.90;;;;;;;12.18;100.00;101314.22;5056042;28;20107;-87
2023/08/07 02:02:07;;;;;;;5.93;2.38;;;;;;;12.18;100.00;101326.38;5055165;28;20032;-87
2023/08/07 02:04:32;;;;;;;4.13;2.00;;;;;;;12.14;100.00;101327.31;5055578;28;20024;-87
2023/08/07 02:06:58;;;;;;;5.93;1.90;;;;;;;12.12;100.00;101324.75;5055876;28;20489;-88
2023/08/07 02:09:23;;;;;;;5.00;2.00;;;;;;;12.10;100.00;101321.28;5054430;28;20474;-88
2023/08/07 02:11:48;;;;;;;4.33;2.00;;;;;;;12.04;100.00;101322.22;5057394;28;20029;-88
2023/08/07 02:14:14;;;;;;;5.90;2.10;;;;;;;12.01;100.00;101318.81;5055812;28;20040;-87
2023/08/07 02:16:42;;;;;;;6.47;2.23;;;;;;;12.03;100.00;101327.47;5054488;28;20120;-87
2023/08/07 02:19:07;;;;;;;4.90;1.90;;;;;;;12.03;100.00;101328.31;5050824;28;20021;-87
2023/08/07 02:21:32;;;;;;;6.53;2.63;;;;;;;12.02;100.00;101318.78;5054882;28;20382;-87
2023/08/07 02:23:58;;;;;;;5.63;2.20;;;;;;;11.98;100.00;101324.94;5054976;28;20099;-88
2023/08/07 02:26:23;;;;;;;5.53;2.37;;;;;;;11.98;100.00;101324.06;5055284;28;20492;-87
2023/08/07 02:28:49;;;;;;;3.93;2.00;;;;;;;11.95;100.00;101324.06;5055287;28;20031;-87
2023/08/07 02:31:14;;;;;;;4.97;2.13;;;;;;;11.94;100.00;101325.81;5054239;28;20042;-88
2023/08/07 02:33:41;;;;;;;5.60;2.20;;;;;;;11.96;100.00;101310.16;5055094;28;20135;-88
2023/08/07 02:36:07;;;;;;;5.97;2.22;;;;;;;11.92;100.00;101308.50;5054851;28;20032;-87
2023/08/07 02:38:32;;;;;;;5.67;2.10;;;;;;;11.96;100.00;101318.84;5054833;28;20021;-87
2023/08/07 02:40:57;;;;;;;3.77;1.97;;;;;;;11.95;100.00;101316.25;5055295;28;20028;-87
2023/08/07 02:43:23;;;;;;;3.53;2.10;;;;;;;12.01;100.00;101321.41;5055025;28;20036;-88
2023/08/07 02:45:48;;;;;;;2.70;1.87;;;;;;;11.98;100.00;101313.66;5055280;28;20017;-88
2023/08/07 02:48:13;;;;;;;2.77;1.70;;;;;;;12.05;100.00;101323.06;5055080;28;20531;-88
2023/08/07 02:50:39;;;;;;;1.80;1.60;;;;;;;12.10;100.00;101321.28;5054939;28;20057;-88
2023/08/07 02:53:04;;;;;;;3.20;1.50;;;;;;;12.13;100.00;101325.59;5056503;28;20377;-87
2023/08/07 02:55:29;;;;;;;1.73;1.30;;;;;;;12.10;100.00;101328.25;5054947;28;20067;-88
2023/08/07 02:57:55;;;;;;;2.40;1.60;;;;;;;12.13;100.00;101339.47;5033877;28;20038;-87
2023/08/07 03:00:20;;;;;;;2.23;1.23;;;;;;;12.13;100.00;101334.25;5034668;28;20106;-87
2023/08/07 03:02:45;;;;;;;2.90;1.50;;;;;;;12.14;100.00;101335.09;5034669;28;20022;-86
2023/08/07 03:05:11;;;;;;;3.80;1.60;;;;;;;12.14;100.00;101340.31;5033799;28;20029;-87
2023/08/07 03:07:36;;;;;;;3.10;1.80;;;;;;;12.07;100.00;101326.53;5034332;28;20116;-88
2023/08/07 03:10:07;;;;;;;2.83;1.83;;;;;;;12.12;100.00;101327.34;5034874;28;20031;-88
2023/08/07 03:12:32;;;;;;;1.38;1.20;;;;;;;12.13;100.00;101322.97;5034105;28;20052;-87
2023/08/07 03:14:57;;;;;;;1.27;1.17;;;;;;;12.13;100.00;101325.59;5034757;28;20045;-87
2023/08/07 03:17:23;;;;;;;1.10;1.03;;;;;;;12.17;100.00;101327.28;5034189;28;20438;-87
2023/08/07 03:19:49;;;;;;;1.10;1.00;;;;;;;12.16;100.00;101320.34;5034297;28;20029;-87
2023/08/07 03:22:14;;;;;;;0.80;0.80;;;;;;;12.14;100.00;101311.69;5034307;28;20018;-87
2023/08/07 03:24:39;;;;;;;0.70;0.70;;;;;;;12.16;100.00;101312.53;5033921;28;20025;-87
2023/08/07 03:27:05;;;;;;;0.67;0.67;;;;;;;12.09;100.00;101300.50;5032717;28;20025;-86
2023/08/07 03:29:33;;;;;;;0.83;0.83;;;;;;;12.17;100.00;101311.66;5033272;28;20490;-87
2023/08/07 03:31:59;;;;;;;0.85;0.80;;;;;;;12.16;100.00;101304.72;5034027;28;20466;-86
2023/08/07 03:34:24;;;;;;;0.90;0.90;;;;;;;12.19;100.00;101308.16;5032347;28;20064;-86
2023/08/07 03:36:55;;;;;;;1.50;0.70;;;;;;;12.15;100.00;101300.41;5034174;28;20033;-87
2023/08/07 03:39:20;;;;;;;0.80;0.80;;;;;;;12.14;100.00;101303.88;5033431;28;20022;-86
2023/08/07 03:41:46;;;;;;;2.20;1.27;;;;;;;12.15;100.00;101305.59;5032951;28;20401;-86
2023/08/07 03:44:11;;;;;;;1.43;1.20;;;;;;;12.11;100.00;101302.19;5033295;28;20023;-86
2023/08/07 03:46:36;;;;;;;1.50;1.27;;;;;;;12.14;100.00;101307.38;5033951;28;20026;-85
2023/08/07 03:49:02;;;;;;;2.20;1.30;;;;;;;12.16;100.00;101309.94;5032919;28;20025;-87
2023/08/07 03:51:27;;;;;;;1.70;1.40;;;;;;;12.16;100.00;101309.94;5033468;28;20037;-87
2023/08/07 03:53:52;;;;;;;1.30;1.10;;;;;;;12.13;100.00;101303.03;5032959;28;20022;-86
2023/08/07 03:56:18;;;;;;;1.23;1.00;;;;;;;12.17;100.00;101306.44;5033182;28;20079;-85
2023/08/07 03:58:44;;;;;;;0.80;0.80;;;;;;;12.18;100.00;101309.03;5034497;28;20021;-83
2023/08/07 04:01:10;;;;;;;1.40;1.02;;;;;;;12.22;100.00;101314.19;5032416;28;20167;-85
2023/08/07 04:03:37;;;;;;;1.95;0.80;;;;;;;12.21;100.00;101318.53;5033413;28;20448;-84
2023/08/07 04:06:05;;;;;;;0.63;0.63;;;;;;;12.21;100.00;101310.75;5033340;28;20040;-86
2023/08/07 04:08:30;;;;;;;6.10;2.10;;;;;;;12.17;100.00;101315.09;5033454;28;20567;-94
2023/08/07 04:11:05;;;;;;;4.37;2.20;;;;;;;12.19;100.00;101315.09;5033044;28;20116;-88
2023/08/07 04:13:31;;;;;;;4.55;2.05;;;;;;;12.17;100.00;101317.72;5034672;28;20116;-88
2023/08/07 04:15:57;;;;;;;5.40;1.80;;;;;;;12.17;100.00;101317.72;5033798;28;20101;-87
2023/08/07 04:18:25;;;;;;;5.27;2.10;;;;;;;12.18;100.00;101311.63;5035218;28;20030;-85
2023/08/07 04:20:53;;;;;;;4.53;2.13;;;;;;;12.17;100.00;101315.09;5053320;28;20025;-88
2023/08/07 04:23:18;;;;;;;2.90;1.90;;;;;;;12.16;100.00;101309.94;5051833;28;20021;-87
2023/08/07 04:25:44;;;;;;;2.77;1.77;;;;;;;12.13;100.00;101308.25;5052991;28;20066;-86
2023/08/07 04:28:10;;;;;;;5.25;2.20;;;;;;;12.15;100.00;101310.81;5052816;28;20044;-87
2023/08/07 04:30:35;;;;;;;3.23;2.07;;;;;;;12.20;100.00;101317.66;5043677;28;20032;-87
2023/08/07 04:33:00;;;;;;;2.67;2.10;;;;;;;12.20;100.00;101324.63;5053154;28;20468;-86
2023/08/07 04:35:26;;;;;;;4.40;1.83;;;;;;;12.16;100.00;101313.38;5052253;28;20102;-85
2023/08/07 04:37:51;;;;;;;3.47;2.13;;;;;;;12.19;100.00;101321.16;5050944;28;20111;-86
2023/08/07 04:40:17;;;;;;;3.40;2.23;;;;;;;12.19;100.00;101328.97;5050359;28;20049;-86
2023/08/07 04:42:42;;;;;;;6.53;2.30;;;;;;;12.22;100.00;101335.00;5052889;28;20107;-86
2023/08/07 04:45:09;;;;;;;2.93;2.10;;;;;;;12.22;100.00;101333.25;5051968;28;20032;-86
2023/08/07 04:47:34;;;;;;;;;;;;;;;12.25;100.00;101338.41;5052835;28;20017;-86
2023/08/07 04:49:59;;;;;;;4.10;2.23;;;;;;;12.24;100.00;101336.69;5052623;28;19923;-86
2023/08/07 04:52:25;;;;;;;5.20;2.40;;;;;;;12.26;100.00;101331.50;5052041;28;20021;-86
2023/08/07 04:54:50;;;;;;;3.43;2.00;;;;;;;12.28;100.00;101334.91;5052234;28;20025;-86
2023/08/07 04:57:16;;;;;;;3.57;1.93;;;;;;;12.28;100.00;101333.19;5051764;28;20087;-86
2023/08/07 04:59:41;;;;;;;3.97;1.83;;;;;;;12.28;100.00;101327.09;5052629;28;20029;-85
2023/08/07 05:02:06;;;;;;;4.10;2.20;;;;;;;12.29;100.00;101334.91;5052070;28;20385;-87
2023/08/07 05:04:32;;;;;;;3.07;2.00;;;;;;;12.30;100.00;101335.75;5051452;28;20495;-87
2023/08/07 05:06:57;;;;;;;2.97;1.70;;;;;;;12.31;100.00;101335.75;5048925;28;20111;-86
2023/08/07 05:09:22;;;;;;;3.10;1.80;;;;;;;12.34;100.00;101347.84;5051814;28;20116;-87
2023/08/07 05:11:48;;;;;;;4.53;1.93;;;;;;;12.34;100.00;101332.22;5051431;28;20108;-86
2023/08/07 05:14:13;;;;;;;2.63;1.70;;;;;;;12.37;100.00;101353.03;5052043;28;20048;-87
2023/08/07 05:16:39;;;;;;;2.57;1.90;;;;;;;12.38;100.00;101351.25;5050078;28;20037;-86
2023/08/07 05:19:04;;;;;;;2.77;1.80;;;;;;;12.35;100.00;101344.38;5051227;28;20112;-87
2023/08/07 05:21:29;;;;;;;2.43;1.60;;;;;;;12.38;100.00;101349.53;5051650;28;20029;-88
2023/08/07 05:23:55;;;;;;;1.73;1.47;;;;;;;12.39;100.00;101348.63;5052675;28;20025;-83
2023/08/07 05:26:21;;;;;;;5.47;1.97;;;;;;;12.40;100.00;101357.31;5051442;28;20064;-87
2023/08/07 05:28:46;;;;;;;3.38;1.73;;;;;;;12.39;100.00;101353.81;5052315;28;20037;-84
2023/08/07 05:31:12;;;;;;;5.33;2.07;;;;;;;12.35;100.00;101347.81;5051982;28;20025;-84
2023/08/07 05:33:37;;;;;;;2.43;1.63;;;;;;;12.43;100.00;101362.47;5041118;28;20033;-85
2023/08/07 05:36:02;;;;;;;3.63;1.93;;;;;;;12.30;100.00;101353.97;5031781;28;20021;-85
2023/08/07 05:38:28;;;;;;;4.23;2.10;;;;;;;12.39;100.00;101371.19;5032065;28;20116;-88
2023/08/07 05:40:53;;;;;;;3.27;1.77;;;;;;;12.42;100.00;101384.19;5031953;28;20028;-90
2023/08/07 05:43:18;;;;;;;1.90;1.60;;;;;;;12.42;100.00;101385.03;5032066;28;20521;-84
2023/08/07 05:45:46;;;;;;;4.30;2.13;;;;;;;12.41;100.00;101395.47;5031737;28;20025;-86
2023/08/07 05:48:11;;;;;;;4.75;1.88;;;;;;;12.40;100.00;101396.34;5030989;28;20451;-83
2023/08/07 05:50:37;;;;;;;4.63;1.90;;;;;;;12.40;100.00;101405.00;5032034;28;20046;-87
2023/08/07 05:53:02;;;;;;;4.03;1.80;;;;;;;12.35;100.00;101393.81;5034933;28;20478;-83
2023/08/07 05:55:28;;;;;;;3.20;1.80;;;;;;;12.35;100.00;101384.25;5034993;28;20507;-87
2023/08/07 05:57:53;;;;;;;5.37;2.00;;;;;;;12.34;100.00;101384.28;5035968;28;20040;-85
2023/08/07 06:00:21;;;;;;;4.40;2.47;;;;;;;12.35;100.00;101388.63;5036985;28;20022;-87
2023/08/07 06:02:52;;;;;;;4.32;2.00;;;;;;;12.40;100.00;101397.19;5054922;28;20032;-87
2023/08/07 06:05:18;;;;;;;4.90;1.50;;;;;;;12.35;100.00;101386.84;5054672;28;20041;-86
2023/08/07 06:07:43;;;;;;;1.77;1.60;;;;;;;12.41;100.00;101391.13;5054863;28;20025;-87
2023/08/07 06:10:08;;;;;;;3.23;2.00;;;;;;;12.43;100.00;101404.13;5054915;28;20052;-91
2023/08/07 06:12:34;;;;;;;2.90;1.77;;;;;;;12.43;100.00;101399.78;5055307;28;20071;-85
2023/08/07 06:14:59;;;;;;;3.93;1.80;;;;;;;12.46;100.00;101397.13;5054524;28;20062;-85
2023/08/07 06:17:24;;;;;;;3.20;1.70;;;;;;;12.40;100.00;101388.53;5054972;28;20028;-86
2023/08/07 06:19:50;;;;;;;3.67;1.67;;;;;;;12.48;100.00;101402.31;5055155;28;20485;-86
2023/08/07 06:22:15;;;;;;;4.97;1.80;;;;;;;12.51;100.00;101402.28;5053829;28;20128;-84
2023/08/07 06:24:40;;;;;;;4.10;1.90;;;;;;;12.49;100.00;101404.91;5055014;28;20029;-85
2023/08/07 06:27:06;;;;;;;3.27;2.00;;;;;;;12.51;100.00;101407.47;5054843;28;20025;-85
2023/08/07 06:29:31;;;;;;;6.03;2.20;;;;;;;12.54;100.00;101412.66;5054301;28;20036;-85
2023/08/07 06:31:57;;;;;;;3.43;1.90;;;;;;;12.57;100.00;101422.16;5054717;28;20420;-85
2023/08/07 06:34:22;;;;;;;2.83;1.90;;;;;;;12.62;100.00;101431.63;5054168;28;20033;-86
2023/08/07 06:36:47;;;;;;;2.77;1.77;;;;;;;12.64;100.00;101424.66;5053602;28;20031;-85
2023/08/07 06:39:13;;;;;;;6.07;2.33;;;;;;;12.74;100.00;101440.97;5054818;28;20047;-86
2023/08/07 06:41:39;;;;;;;6.77;2.33;;;;;;;12.81;100.00;101437.41;5054284;28;20738;-86
2023/08/07 06:44:04;;;;;;;5.78;2.40;;;;;;;12.90;100.00;101435.56;5053703;28;20029;-86
2023/08/07 06:46:29;;;;;;;6.20;2.30;;;;;;;12.99;100.00;101427.59;5054593;28;20025;-85
2023/08/07 06:48:55;;;;;;;2.97;2.00;;;;;;;13.12;100.00;101434.31;5035015;28;20207;-81
2023/08/07 06:51:21;;;;;;;5.85;2.10;;;;;;;13.20;100.00;101428.09;5033326;28;20104;-85
2023/08/07 06:53:46;;;;;;;4.10;2.00;;;;;;;13.34;100.00;101433.97;5034881;28;20042;-83
2023/08/07 06:56:12;;;;;;;4.33;2.00;;;;;;;13.42;100.00;101439.06;5034085;28;20021;-84
2023/08/07 06:58:37;;;;;;;6.47;2.43;;;;;;;13.51;100.00;101445.88;5033918;28;20033;-84
2023/08/07 07:01:02;;;;;;;4.00;1.83;;;;;;;13.52;100.00;101435.41;5033941;28;20470;-83
2023/08/07 07:03:28;;;;;;;4.33;2.00;;;;;;;13.53;100.00;101439.75;5033810;28;20030;-84
2023/08/07 07:05:53;;;;;;;4.60;1.80;;;;;;;13.63;100.00;101445.63;5033609;28;20017;-83
2023/08/07 07:08:18;;;;;;;4.03;1.90;;;;;;;13.71;100.00;101448.09;5036434;28;20109;-84
2023/08/07 07:10:43;;;;;;;7.43;2.20;;;;;;;13.77;100.00;101449.75;5052212;28;20362;-83
2023/08/07 07:13:09;;;;;;;4.27;1.90;;;;;;;13.83;100.00;101447.03;5053297;28;20079;-84
2023/08/07 07:15:35;;;;;;;5.40;2.07;;;;;;;13.85;99.99;101455.66;5054090;28;20127;-84
2023/08/07 07:18:01;;;;;;;5.07;1.80;;;;;;;13.81;99.99;101465.31;5053291;28;20063;-84
2023/08/07 07:20:26;;;;;;;5.03;1.97;;;;;;;13.80;100.00;101481.84;5053744;28;20039;-84
2023/08/07 07:22:52;;;;;;;4.77;2.27;;;;;;;13.81;100.00;101487.94;5051860;28;20024;-83
2023/08/07 07:25:17;;;;;;;4.80;2.00;;;;;;;13.78;100.00;101493.19;5052902;28;20024;-83
2023/08/07 07:27:43;;;;;;;3.57;1.80;;;;;;;13.70;100.00;101507.25;5053782;28;20025;-83
2023/08/07 07:30:11;;;;;;;6.50;2.20;;;;;;;13.55;100.00;101512.72;5053693;28;20025;-83
2023/08/07 07:32:36;;;;;;;3.95;2.20;;;;;;;13.52;100.00;101510.16;5053221;28;20041;-82
2023/08/07 07:35:02;;;;;;;3.87;1.80;;;;;;;13.43;100.00;101505.97;5053684;28;20071;-82
2023/08/07 07:37:27;;;;;;;4.57;1.70;;;;;;;13.43;100.00;101504.22;5053491;28;20056;-83
2023/08/07 07:39:53;;;;;;;2.33;1.70;;;;;;;13.43;100.00;101501.59;5053223;28;20017;-82
2023/08/07 07:42:18;;;;;;;1.67;1.50;;;;;;;13.48;100.00;101513.72;5053570;28;20513;-82
2023/08/07 07:44:43;;;;;;;2.93;1.60;;;;;;;13.44;100.00;101518.97;5053270;28;20067;-83
2023/08/07 07:47:09;;;;;;;5.37;2.00;;;;;;;13.38;100.00;101519.06;5052731;28;20049;-82
2023/08/07 07:49:34;;;;;;;4.03;1.87;;;;;;;13.26;100.00;101503.63;5053355;28;20060;-83
2023/08/07 07:52:00;;;;;;;5.27;2.50;;;;;;;13.26;100.00;101519.25;5053694;28;20060;-83
2023/08/07 07:54:25;;;;;;;4.27;2.10;;;;;;;13.25;100.00;101518.38;5052466;28;20393;-83
2023/08/07 07:56:51;;;;;;;5.53;2.13;;;;;;;13.26;100.00;101533.13;5053218;28;20056;-83
2023/08/07 07:59:16;;;;;;;6.20;2.20;;;;;;;13.25;100.00;101525.34;5052645;28;20076;-83
2023/08/07 08:01:42;;;;;;;3.53;2.10;;;;;;;13.28;100.00;101528.75;5052353;28;20083;-83
2023/08/07 08:04:07;;;;;;;3.63;1.80;;;;;;;13.34;100.00;101512.16;5052799;28;20029;-83
2023/08/07 08:06:33;;;;;;;4.23;2.00;;;;;;;13.51;100.00;101522.34;5053376;28;20021;-83
2023/08/07 08:08:59;;;;;;;1.87;1.50;;;;;;;13.66;100.00;101530.81;5052373;28;20083;-84
2023/08/07 08:11:27;;;;;;;3.47;1.70;;;;;;;13.81;100.00;101529.69;5053043;28;20029;-83
2023/08/07 08:13:52;;;;;;;1.88;1.20;;;;;;;13.96;100.00;101528.53;5052591;28;20021;-84
2023/08/07 08:16:17;;;;;;;1.27;0.97;;;;;;;14.14;100.00;101527.31;5051893;28;20056;-84
2023/08/07 08:18:43;;;;;;;2.00;1.07;;;;;;;14.28;100.00;101524.44;5052749;28;20029;-84
2023/08/07 08:21:08;;;;;;;1.20;1.10;;;;;;;14.49;100.00;101528.38;5050404;28;20132;-84
2023/08/07 08:23:34;;;;;;;2.40;1.23;;;;;;;14.75;100.00;101521.78;5052695;28;20033;-83
2023/08/07 08:25:59;;;;;;;1.20;1.10;;;;;;;14.97;100.00;101517.75;5053017;28;20025;-84
2023/08/07 08:28:24;;;;;;;1.43;1.30;;;;;;;15.22;100.00;101521.56;5051752;28;20533;-83
2023/08/07 08:30:50;;;;;;;2.07;1.27;;;;;;;15.45;100.00;101523.63;5051008;28;20021;-83
2023/08/07 08:33:15;;;;;;;3.17;1.10;;;;;;;15.64;100.00;101524.00;5051917;28;20103;-83
2023/08/07 08:35:41;;;;;;;1.77;1.27;;;;;;;15.83;100.00;101516.53;5052320;28;20025;-83
2023/08/07 08:38:06;;;;;;;1.70;1.23;;;;;;;16.05;100.00;101522.06;5052347;28;20040;-83
2023/08/07 08:40:33;;;;;;;3.77;1.90;;;;;;;16.23;100.00;101527.72;5052952;28;20108;-84
2023/08/07 08:43:00;;;;;;;5.28;1.80;;;;;;;16.29;97.00;101529.31;5052040;28;20029;-84
2023/08/07 08:45:27;;;;;;;5.70;2.33;;;;;;;16.27;91.61;101541.59;5052072;28;20547;-84
2023/08/07 08:47:57;;;;;;;3.78;1.70;;;;;;;16.11;88.09;101544.63;5052704;28;20385;-84
2023/08/07 08:50:23;;;;;;;4.85;2.30;;;;;;;15.95;90.84;101535.47;5049108;28;20103;-84
2023/08/07 08:52:51;;;;;;;3.07;1.73;;;;;;;15.80;91.54;101540.19;5032092;28;20025;-84
2023/08/07 08:55:17;;;;;;;4.15;1.80;;;;;;;15.71;89.41;101545.66;5032073;28;20033;-84
2023/08/07 08:57:43;;;;;;;5.20;1.90;;;;;;;15.54;88.04;101554.78;5031749;28;20489;-82
2023/08/07 09:00:20;;;;;;;4.37;1.93;;;;;;;15.53;86.34;101555.69;5032230;28;20045;-82
2023/08/07 09:02:47;;;;;;;5.43;2.13;;;;;;;15.75;88.78;101561.22;5032358;28;20437;-83
2023/08/07 09:05:14;;;;;;;3.95;1.80;;;;;;;16.10;89.37;101550.75;5031486;28;20386;-83
2023/08/07 09:07:40;;;;;;;1.75;1.65;;;;;;;16.24;86.67;101557.38;5032875;28;20035;-86
2023/08/07 09:10:06;;;;;;;1.50;1.40;;;;;;;16.21;88.94;101551.31;5032342;28;20033;-84
2023/08/07 09:12:36;;;;;;;5.72;1.90;;;;;;;16.15;84.36;101558.50;5031427;28;20033;-84
2023/08/07 09:15:04;;;;;;;3.70;1.67;;;;;;;16.04;83.14;101571.88;5032141;28;20054;-84
2023/08/07 09:17:33;;;;;;;5.22;2.08;;;;;;;16.10;85.09;101569.09;5031694;28;20108;-84
2023/08/07 09:19:59;;;;;;;3.47;1.80;;;;;;;16.28;86.18;101570.34;5032325;28;20113;-83
2023/08/07 09:22:24;;;;;;;4.17;2.10;;;;;;;16.48;83.07;101566.31;5045697;28;20151;-84
2023/08/07 09:24:49;;;;;;;4.17;2.00;;;;;;;16.65;83.01;101565.84;5051369;28;20385;-84
2023/08/07 09:27:15;;;;;;;3.93;2.03;;;;;;;16.81;78.13;101568.88;5055364;28;20048;-84
2023/08/07 09:29:41;;;;;;;4.63;1.97;;;;;;;17.01;79.76;101572.66;5055603;28;20029;-84
2023/08/07 09:32:18;;;;;;;3.20;1.70;;;;;;;17.17;80.88;101563.41;5055045;28;20036;-85
2023/08/07 09:34:44;;;;;;;2.60;1.75;;;;;;;17.42;79.85;101570.50;5056338;28;20036;-85
2023/08/07 09:37:09;;;;;;;2.57;1.80;;;;;;;17.52;75.46;101565.81;5055568;28;20029;-84
2023/08/07 09:39:36;;;;;;;4.60;2.05;;;;;;;17.44;72.47;101572.19;5055208;28;20025;-85
2023/08/07 09:42:05;;;;;;;4.85;2.28;;;;;;;17.28;72.58;101578.81;5055906;28;20025;-84
2023/08/07 09:44:39;;;;;;;6.10;2.10;;;;;;;17.34;73.85;101575.97;5055507;28;20040;-85
2023/08/07 09:47:16;;;;;;;2.70;2.00;;;;;;;17.29;72.28;101577.91;5054939;28;20021;-84
2023/08/07 09:49:43;;;;;;;3.20;1.75;;;;;;;17.21;74.10;101580.78;5055550;28;20049;-84
2023/08/07 09:52:09;;;;;;;;;;;;;;;17.36;75.76;101583.81;5053961;28;20033;-85
2023/08/07 09:54:34;;;;;;;5.38;1.88;;;;;;;17.54;70.33;101587.63;5054888;28;20423;-86
2023/08/07 09:57:02;;;;;;;4.70;2.00;;;;;;;17.70;73.00;101583.56;5055364;28;20025;-85
2023/08/07 09:59:28;;;;;;;3.47;1.67;;;;;;;17.90;73.79;101592.56;5055737;28;20425;-84
2023/08/07 10:01:59;;;;;;;2.53;1.70;;;;;;;17.94;70.31;101570.50;5054985;28;20021;-85
2023/08/07 10:04:26;;;;;;;4.30;1.88;;;;;;;17.99;65.54;101600.16;5055438;28;20021;-85
2023/08/07 10:06:51;;;;;;;6.53;2.10;;;;;;;17.86;63.68;101591.78;5054844;28;20025;-86
2023/08/07 10:09:16;;;;;;;2.17;1.50;;;;;;;17.77;68.18;101604.38;5055256;28;20055;-85
2023/08/07 10:11:43;;;;;;;2.43;1.60;;;;;;;17.58;70.36;101599.72;5055767;28;20025;-84
2023/08/07 10:14:09;;;;;;;3.72;2.10;;;;;;;17.48;68.54;101595.69;5054477;28;20017;-85
2023/08/07 10:16:39;;;;;;;4.95;1.90;;;;;;;17.61;68.95;101607.50;5055324;28;20477;-87
2023/08/07 10:19:08;;;;;;;3.63;1.90;;;;;;;17.78;68.70;101598.22;5054969;28;20047;-84
2023/08/07 10:21:47;;;;;;;3.80;1.80;;;;;;;17.95;66.69;101597.66;5048239;28;20351;-85
2023/08/07 10:24:14;;;;;;;3.25;1.73;;;;;;;18.13;66.26;101601.41;5054564;28;20030;-84
2023/08/07 10:26:44;;;;;;;4.88;1.83;;;;;;;18.30;65.90;101603.44;5055269;28;20029;-84
2023/08/07 10:29:14;;;;;;;1.95;1.30;;;;;;;18.49;67.77;101606.28;5053995;28;20025;-84
2023/08/07 10:31:42;;;;;;;2.65;1.38;;;;;;;18.63;59.36;101590.84;5054965;28;20032;-85
2023/08/07 10:34:08;;;;;;;2.63;1.48;;;;;;;18.76;61.56;101614.91;5054693;28;20024;-86
2023/08/07 10:36:35;;;;;;;2.63;1.60;;;;;;;18.79;62.95;101603.44;5054815;28;20033;-85
2023/08/07 10:39:08;;;;;;;2.83;1.58;;;;;;;18.91;60.36;101621.38;5054557;28;20025;-86
2023/08/07 10:41:47;;;;;;;3.42;1.55;;;;;;;18.93;57.15;101613.41;5055032;28;20021;-86
2023/08/07 10:44:23;;;;;;;2.60;1.45;;;;;;;18.95;59.59;101612.47;5054512;28;20024;-86
2023/08/07 10:46:52;;;;;;;2.05;1.30;;;;;;;19.06;59.93;101612.06;5054942;28;20024;-85
2023/08/07 10:49:30;;;;;;;2.83;1.60;;;;;;;19.27;63.14;101607.72;5053774;28;20025;-85
2023/08/07 10:51:56;;;;;;;2.78;1.50;;;;;;;19.41;61.08;101624.75;5046082;28;20041;-85
2023/08/07 10:54:23;;;;;;;5.53;1.87;;;;;;;19.52;55.86;101627.78;5034164;28;20092;-85
2023/08/07 10:56:55;;;;;;;2.92;1.73;;;;;;;19.55;58.30;101625.03;5033946;28;20021;-86
2023/08/07 10:59:21;;;;;;;2.78;1.60;;;;;;;19.36;57.88;101621.44;5034115;28;20080;-86
2023/08/07 11:01:52;;;;;;;2.20;1.40;;;;;;;19.11;56.53;101625.88;5034248;28;20062;-86
2023/08/07 11:04:19;;;;;;;2.20;1.50;;;;;;;18.98;57.70;101630.78;5033695;28;20038;-86
2023/08/07 11:06:47;;;;;;;3.47;1.50;;;;;;;18.98;61.38;101622.88;5034556;28;20429;-85
2023/08/07 11:09:13;;;;;;;2.25;1.60;;;;;;;19.22;60.78;101624.59;5034285;28;20032;-86
2023/08/07 11:11:40;;;;;;;2.53;1.40;;;;;;;19.29;56.48;101634.84;5033531;28;20017;-85
2023/08/07 11:14:07;;;;;;;3.80;1.77;;;;;;;19.39;58.52;101637.97;5034103;28;20013;-86
2023/08/07 11:16:34;;;;;;;3.38;2.00;;;;;;;19.50;56.21;101632.25;5036164;28;20036;-91